Time;durP1;ratioP1;P1;durP2;ratioP2;P2;SDS_P1;SDS_P2;PMS_P1;PMS_P2;Temp;Humidity;BMP_temperature;BMP_pressure;BME280_temperature;BME280_humidity;BME280_pressure;Samples;Min_cycle;Max_cycle;Signal;HPM_P1;HPM_P2
2022/01/04 00:01:08;;;;;;;;;;;21.10;44.70;;;;;;5090629;28;20345;-45
2022/01/04 00:03:35;;;;;;;;;;;21.00;44.60;;;;;;5106894;28;19924;-48
2022/01/04 00:06:03;;;;;;;;;;;21.00;44.60;;;;;;5107524;27;19923;-42
2022/01/04 00:08:30;;;;;;;;;;;21.00;44.70;;;;;;5104365;28;19931;-46
2022/01/04 00:11:07;;;;;;;;;;;21.10;44.70;;;;;;5086854;28;19928;-42
2022/01/04 00:13:34;;;;;;;;;;;21.00;44.60;;;;;;5090916;28;19934;-44
2022/01/04 00:16:02;;;;;;;;;;;21.00;44.60;;;;;;5092039;28;19930;-44
2022/01/04 00:18:29;;;;;;;;;;;21.00;44.70;;;;;;5091750;28;19924;-45
2022/01/04 00:20:56;;;;;;;;;;;21.00;44.60;;;;;;5094871;28;20429;-45
2022/01/04 00:23:24;;;;;;;;;;;21.00;44.70;;;;;;5111168;28;19928;-46
2022/01/04 00:25:51;;;;;;;;;;;21.00;44.70;;;;;;5092272;28;19968;-42
2022/01/04 00:28:18;;;;;;;;;;;21.00;44.70;;;;;;5089828;28;19927;-45
2022/01/04 00:30:45;;;;;;;;;;;21.00;44.70;;;;;;5110371;27;19963;-45
2022/01/04 00:33:12;;;;;;;;;;;21.00;44.70;;;;;;5108184;28;19973;-50
2022/01/04 00:35:39;;;;;;;;;;;21.00;44.70;;;;;;5108949;27;19927;-49
2022/01/04 00:38:06;;;;;;;;;;;21.00;44.70;;;;;;5091047;28;19976;-43
2022/01/04 00:40:34;;;;;;;;;;;21.00;44.70;;;;;;5094251;27;20416;-44
2022/01/04 00:43:01;;;;;;;;;;;21.00;44.70;;;;;;5102533;28;19924;-42
2022/01/04 00:45:31;;;;;;;;;;;21.00;44.70;;;;;;5092868;28;19977;-45
2022/01/04 00:50:57;;;;;;;;;;;21.00;44.70;;;;;;5029312;28;19925;-52
2022/01/04 00:53:23;;;;;;;;;;;21.00;44.70;;;;;;5045607;28;19928;-49
2022/01/04 00:55:51;;;;;;;;;;;21.00;44.70;;;;;;5056444;28;19924;-45
2022/01/04 00:58:18;;;;;;;;;;;21.00;44.80;;;;;;5091506;28;19928;-44
2022/01/04 01:00:45;;;;;;;;;;;21.00;44.70;;;;;;5110741;28;19962;-42
2022/01/04 01:03:12;;;;;;;;;;;21.00;44.70;;;;;;5092499;28;19923;-45
2022/01/04 01:05:38;;;;;;;;;;;21.00;44.80;;;;;;5091696;28;20407;-49
2022/01/04 01:08:06;;;;;;;;;;;21.00;44.80;;;;;;5092048;28;19934;-48
2022/01/04 01:10:45;;;;;;;;;;;21.00;44.80;;;;;;5074139;28;20002;-43
2022/01/04 01:13:13;;;;;;;;;;;21.00;44.80;;;;;;5089961;28;19928;-47
2022/01/04 01:15:41;;;;;;;;;;;21.00;44.80;;;;;;5105973;28;19945;-47
2022/01/04 01:18:08;;;;;;;;;;;21.00;44.80;;;;;;5112591;28;19927;-42
2022/01/04 01:20:35;;;;;;;;;;;21.00;44.80;;;;;;5091471;28;19924;-47
2022/01/04 01:23:02;;;;;;;;;;;21.00;44.80;;;;;;5091288;28;19930;-47
2022/01/04 01:25:28;;;;;;;;;;;21.00;44.80;;;;;;5089426;28;19931;-45
2022/01/04 01:27:55;;;;;;;;;;;21.00;44.80;;;;;;5095856;28;19928;-48
2022/01/04 01:30:24;;;;;;;;;;;21.00;44.80;;;;;;5093745;28;19928;-44
2022/01/04 01:32:51;;;;;;;;;;;21.00;44.80;;;;;;5096818;28;19967;-43
2022/01/04 01:35:18;;;;;;;;;;;21.00;44.80;;;;;;5095644;28;20010;-42
2022/01/04 01:37:45;;;;;;;;;;;21.00;44.80;;;;;;5099085;28;19984;-46
2022/01/04 01:40:12;;;;;;;;;;;21.00;44.80;;;;;;5084508;28;20484;-47
2022/01/04 01:42:39;;;;;;;;;;;21.00;44.80;;;;;;5112737;28;19978;-44
2022/01/04 01:45:06;;;;;;;;;;;21.00;44.80;;;;;;5094674;28;20026;-45
2022/01/04 01:47:37;;;;;;;;;;;21.00;44.80;;;;;;5097624;28;20346;-44
2022/01/04 01:50:04;;;;;;;;;;;21.00;44.80;;;;;;5092447;28;19976;-47
2022/01/04 01:52:30;;;;;;;;;;;21.00;44.80;;;;;;5114845;27;19931;-42
2022/01/04 01:54:57;;;;;;;;;;;21.00;44.80;;;;;;5111399;28;19945;-45
2022/01/04 01:57:24;;;;;;;;;;;21.00;44.80;;;;;;5112825;28;19932;-46
2022/01/04 01:59:51;;;;;;;;;;;21.00;44.90;;;;;;5091878;28;20299;-48
2022/01/04 02:02:18;;;;;;;;;;;21.00;44.90;;;;;;5094036;28;19932;-46
2022/01/04 02:04:46;;;;;;;;;;;21.00;44.90;;;;;;5112172;28;19986;-50
2022/01/04 02:07:13;;;;;;;;;;;21.00;44.90;;;;;;5094328;27;19928;-43
2022/01/04 02:09:43;;;;;;;;;;;21.00;44.90;;;;;;5087507;28;19928;-43
2022/01/04 02:12:10;;;;;;;;;;;21.00;44.90;;;;;;5105909;28;19928;-45
2022/01/04 02:14:37;;;;;;;;;;;21.00;44.90;;;;;;5091520;28;19927;-50
2022/01/04 02:17:04;;;;;;;;;;;21.00;44.90;;;;;;5110862;28;19927;-47
2022/01/04 02:19:35;;;;;;;;;;;21.00;44.90;;;;;;5092442;28;19930;-44
2022/01/04 02:22:02;;;;;;;;;;;21.00;44.90;;;;;;5109102;28;19923;-45
2022/01/04 02:24:29;;;;;;;;;;;21.00;44.90;;;;;;5091619;28;20027;-47
2022/01/04 02:26:56;;;;;;;;;;;21.00;45.50;;;;;;5093423;28;19935;-50
2022/01/04 02:29:22;;;;;;;;;;;21.00;44.90;;;;;;5111926;28;19966;-42
2022/01/04 02:31:49;;;;;;;;;;;21.00;44.90;;;;;;5092784;28;20349;-48
2022/01/04 02:34:16;;;;;;;;;;;20.90;44.80;;;;;;5099804;28;19958;-47
2022/01/04 02:36:44;;;;;;;;;;;21.00;44.90;;;;;;5091133;28;19977;-42
2022/01/04 02:39:11;;;;;;;;;;;21.00;44.90;;;;;;5091943;28;19928;-49
2022/01/04 02:41:37;;;;;;;;;;;20.90;44.80;;;;;;5112194;28;19936;-44
2022/01/04 02:44:05;;;;;;;;;;;21.00;45.00;;;;;;5099881;28;20015;-42
2022/01/04 02:46:31;;;;;;;;;;;20.90;44.80;;;;;;5098609;28;19935;-46
2022/01/04 02:48:58;;;;;;;;;;;20.90;44.80;;;;;;5110752;28;19934;-43
2022/01/04 02:51:25;;;;;;;;;;;20.90;44.80;;;;;;5092782;28;19923;-44
2022/01/04 02:53:53;;;;;;;;;;;20.90;44.80;;;;;;5091959;28;20011;-48
2022/01/04 02:56:20;;;;;;;;;;;20.90;44.90;;;;;;5093669;28;19986;-44
2022/01/04 02:58:47;;;;;;;;;;;20.90;44.90;;;;;;5090913;27;19924;-45
2022/01/04 03:01:14;;;;;;;;;;;20.90;44.90;;;;;;5111159;28;19924;-45
2022/01/04 03:03:41;;;;;;;;;;;20.90;44.90;;;;;;5092177;27;20380;-44
2022/01/04 03:06:08;;;;;;;;;;;20.90;44.90;;;;;;5111304;28;19931;-44
2022/01/04 03:08:34;;;;;;;;;;;20.90;44.90;;;;;;5092605;28;19928;-45
2022/01/04 03:11:02;;;;;;;;;;;20.90;44.90;;;;;;5106674;28;20389;-44
2022/01/04 03:13:29;;;;;;;;;;;20.90;44.90;;;;;;5093770;28;20296;-46
2022/01/04 03:15:56;;;;;;;;;;;21.00;45.00;;;;;;5092477;28;20360;-45
2022/01/04 03:18:23;;;;;;;;;;;20.90;44.90;;;;;;5091410;28;19938;-44
2022/01/04 03:20:50;;;;;;;;;;;20.90;44.90;;;;;;5092357;28;19970;-46
2022/01/04 03:23:17;;;;;;;;;;;20.90;45.00;;;;;;5093352;28;20350;-46
2022/01/04 03:25:43;;;;;;;;;;;20.90;44.90;;;;;;5092615;28;20288;-44
2022/01/04 03:28:12;;;;;;;;;;;20.90;44.90;;;;;;5091640;28;20380;-46
2022/01/04 03:30:39;;;;;;;;;;;20.90;44.90;;;;;;5105826;28;19970;-42
2022/01/04 03:33:06;;;;;;;;;;;20.90;44.90;;;;;;5091926;28;19955;-48
2022/01/04 03:35:33;;;;;;;;;;;20.90;44.90;;;;;;5089591;28;20011;-49
2022/01/04 03:37:59;;;;;;;;;;;20.90;44.90;;;;;;5092865;28;19953;-44
2022/01/04 03:40:26;;;;;;;;;;;20.90;44.90;;;;;;5092669;28;20316;-45
2022/01/04 03:42:53;;;;;;;;;;;20.90;44.90;;;;;;5088634;28;20074;-47
2022/01/04 03:45:22;;;;;;;;;;;20.90;44.90;;;;;;5089575;28;19955;-45
2022/01/04 03:47:48;;;;;;;;;;;20.90;44.90;;;;;;5091938;28;19985;-49
2022/01/04 03:50:15;;;;;;;;;;;20.90;44.90;;;;;;5100751;27;19923;-45
2022/01/04 03:52:42;;;;;;;;;;;20.90;44.90;;;;;;5109280;28;19930;-46
2022/01/04 03:55:09;;;;;;;;;;;20.90;44.90;;;;;;5093720;28;19967;-47
2022/01/04 03:57:36;;;;;;;;;;;20.90;44.90;;;;;;5087539;28;19935;-44
2022/01/04 04:00:02;;;;;;;;;;;20.90;44.90;;;;;;5093754;28;20022;-45
2022/01/04 04:02:31;;;;;;;;;;;20.90;44.90;;;;;;5089326;28;19927;-51
2022/01/04 04:04:58;;;;;;;;;;;20.90;44.90;;;;;;5088309;28;19923;-49
2022/01/04 04:07:25;;;;;;;;;;;20.90;44.90;;;;;;5092161;28;20314;-47
2022/01/04 04:09:52;;;;;;;;;;;20.90;45.00;;;;;;5111404;27;19924;-44
2022/01/04 04:12:19;;;;;;;;;;;20.90;44.90;;;;;;5098318;28;19927;-43
2022/01/04 04:14:45;;;;;;;;;;;20.90;44.90;;;;;;5092406;28;19935;-47
2022/01/04 04:17:12;;;;;;;;;;;20.90;45.00;;;;;;5089650;28;20392;-47
2022/01/04 04:19:40;;;;;;;;;;;20.90;44.90;;;;;;5092175;28;19988;-43
2022/01/04 04:22:07;;;;;;;;;;;20.90;45.00;;;;;;5110510;28;19931;-42
2022/01/04 04:24:34;;;;;;;;;;;20.90;44.90;;;;;;5092341;28;20030;-42
2022/01/04 04:27:01;;;;;;;;;;;20.90;45.00;;;;;;5092559;28;20315;-48
2022/01/04 04:29:30;;;;;;;;;;;20.90;45.00;;;;;;5111059;28;19947;-48
2022/01/04 04:31:57;;;;;;;;;;;20.90;45.00;;;;;;5110040;28;19963;-43
2022/01/04 04:34:24;;;;;;;;;;;20.90;45.00;;;;;;5091685;28;19934;-46
2022/01/04 04:36:52;;;;;;;;;;;20.90;45.50;;;;;;5088730;28;19970;-46
2022/01/04 04:39:19;;;;;;;;;;;20.90;45.00;;;;;;5091179;28;19946;-49
2022/01/04 04:41:46;;;;;;;;;;;20.90;45.00;;;;;;5089454;28;20456;-46
2022/01/04 04:44:13;;;;;;;;;;;20.80;44.90;;;;;;5092259;28;19953;-44
2022/01/04 04:46:41;;;;;;;;;;;20.90;45.00;;;;;;5093503;28;20373;-46
2022/01/04 04:49:08;;;;;;;;;;;20.90;45.00;;;;;;5088863;28;19995;-46
2022/01/04 04:51:34;;;;;;;;;;;20.90;45.00;;;;;;5109371;28;19954;-44
2022/01/04 04:54:03;;;;;;;;;;;20.90;45.00;;;;;;5108802;28;19953;-49
2022/01/04 04:56:29;;;;;;;;;;;20.90;45.00;;;;;;5091800;28;19928;-43
2022/01/04 04:58:56;;;;;;;;;;;20.90;45.00;;;;;;5084004;28;19928;-42
2022/01/04 05:01:23;;;;;;;;;;;20.80;45.00;;;;;;5094716;28;20535;-45
2022/01/04 05:03:52;;;;;;;;;;;20.90;45.00;;;;;;5111258;28;19974;-45
2022/01/04 05:06:19;;;;;;;;;;;20.90;45.00;;;;;;5113681;28;19954;-49
2022/01/04 05:08:46;;;;;;;;;;;20.90;45.10;;;;;;5091468;28;19928;-47
2022/01/04 05:11:14;;;;;;;;;;;20.80;45.00;;;;;;5094255;28;19934;-44
2022/01/04 05:13:41;;;;;;;;;;;20.90;45.00;;;;;;5095877;28;20285;-43
2022/01/04 05:16:08;;;;;;;;;;;20.90;45.00;;;;;;5113237;27;19924;-44
2022/01/04 05:18:35;;;;;;;;;;;20.90;45.00;;;;;;5099970;27;19928;-46
2022/01/04 05:21:02;;;;;;;;;;;20.90;45.00;;;;;;5093739;28;19959;-43
2022/01/04 05:23:28;;;;;;;;;;;20.90;45.00;;;;;;5095915;28;19924;-43
2022/01/04 05:25:55;;;;;;;;;;;20.80;45.00;;;;;;5093929;28;19959;-44
2022/01/04 05:28:24;;;;;;;;;;;20.90;45.00;;;;;;5093950;28;19934;-47
2022/01/04 05:30:50;;;;;;;;;;;20.90;45.00;;;;;;5092299;28;19930;-48
2022/01/04 05:33:17;;;;;;;;;;;20.90;45.00;;;;;;5095033;28;19928;-49
2022/01/04 05:35:44;;;;;;;;;;;20.90;45.00;;;;;;5101263;28;19973;-43
2022/01/04 05:38:11;;;;;;;;;;;20.90;45.00;;;;;;5098541;27;20331;-46
2022/01/04 05:40:38;;;;;;;;;;;20.90;45.00;;;;;;5093986;28;19928;-43
2022/01/04 05:43:05;;;;;;;;;;;20.90;45.00;;;;;;5113809;27;19928;-47
2022/01/04 05:45:33;;;;;;;;;;;20.90;45.00;;;;;;5090619;28;20101;-49
2022/01/04 05:48:00;;;;;;;;;;;20.90;45.00;;;;;;5112806;28;19928;-43
2022/01/04 05:50:26;;;;;;;;;;;20.90;45.00;;;;;;5094070;28;20035;-44
2022/01/04 05:52:53;;;;;;;;;;;20.80;45.00;;;;;;5118360;27;20010;-44
2022/01/04 05:55:20;;;;;;;;;;;20.90;45.00;;;;;;5093763;28;19953;-42
2022/01/04 05:57:47;;;;;;;;;;;20.80;45.00;;;;;;5100387;27;19923;-43
2022/01/04 06:00:14;;;;;;;;;;;20.90;45.00;;;;;;5085266;28;19930;-47
2022/01/04 06:02:43;;;;;;;;;;;20.90;45.00;;;;;;5096923;27;20433;-45
2022/01/04 06:05:10;;;;;;;;;;;20.90;45.00;;;;;;5093689;28;19928;-43
2022/01/04 06:07:37;;;;;;;;;;;20.80;45.00;;;;;;5091253;28;19931;-42
2022/01/04 06:10:06;;;;;;;;;;;20.80;45.00;;;;;;5094203;28;19931;-44
2022/01/04 06:15:17;;;;;;;;;;;20.90;45.00;;;;;;5110945;28;19931;-45
2022/01/04 06:17:47;;;;;;;;;;;20.80;45.00;;;;;;5094989;28;19928;-42
2022/01/04 06:20:14;;;;;;;;;;;20.90;45.00;;;;;;5093833;28;20006;-47
2022/01/04 06:22:41;;;;;;;;;;;20.90;45.10;;;;;;5108018;27;19924;-42
2022/01/04 06:25:09;;;;;;;;;;;20.90;45.10;;;;;;5093409;28;19928;-46
2022/01/04 06:27:36;;;;;;;;;;;20.90;45.00;;;;;;5092109;28;19996;-43
2022/01/04 06:30:03;;;;;;;;;;;20.90;45.10;;;;;;5105200;28;19930;-45
2022/01/04 06:32:29;;;;;;;;;;;20.80;45.00;;;;;;5092493;28;19964;-45
2022/01/04 06:34:58;;;;;;;;;;;20.90;45.10;;;;;;5113100;27;20013;-43
2022/01/04 06:37:24;;;;;;;;;;;20.90;45.00;;;;;;5089107;28;19927;-48
2022/01/04 06:39:51;;;;;;;;;;;20.90;45.10;;;;;;5094149;28;19966;-44
2022/01/04 06:42:18;;;;;;;;;;;20.80;45.00;;;;;;5109376;28;20463;-42
2022/01/04 06:44:46;;;;;;;;;;;20.90;45.00;;;;;;5111428;27;20376;-42
2022/01/04 06:47:12;;;;;;;;;;;20.90;45.00;;;;;;5092771;28;19932;-42
2022/01/04 06:49:40;;;;;;;;;;;20.80;45.00;;;;;;5094027;28;19988;-44
2022/01/04 06:52:08;;;;;;;;;;;20.90;45.10;;;;;;5091986;28;19930;-50
2022/01/04 06:54:35;;;;;;;;;;;20.80;45.00;;;;;;5096468;28;20018;-46
2022/01/04 06:57:02;;;;;;;;;;;20.90;45.00;;;;;;5093894;28;19955;-46
2022/01/04 06:59:29;;;;;;;;;;;20.90;45.00;;;;;;5088198;28;19923;-48
2022/01/04 07:01:56;;;;;;;;;;;20.80;44.90;;;;;;5106867;28;19924;-43
2022/01/04 07:04:23;;;;;;;;;;;20.80;44.90;;;;;;5086365;28;19974;-45
2022/01/04 07:06:49;;;;;;;;;;;20.80;44.90;;;;;;5087426;28;20004;-43
2022/01/04 07:09:18;;;;;;;;;;;20.90;44.90;;;;;;5089212;28;19935;-46
2022/01/04 07:11:45;;;;;;;;;;;20.90;45.00;;;;;;5088233;28;20026;-44
2022/01/04 07:14:11;;;;;;;;;;;20.90;45.00;;;;;;5087449;28;19923;-49
2022/01/04 07:16:38;;;;;;;;;;;20.90;45.00;;;;;;5092051;28;19987;-43
2022/01/04 07:19:05;;;;;;;;;;;20.90;45.00;;;;;;5108413;28;19938;-46
2022/01/04 07:21:32;;;;;;;;;;;20.90;45.00;;;;;;5109581;28;20022;-44
2022/01/04 07:23:58;;;;;;;;;;;20.90;45.00;;;;;;5088848;28;19965;-43
2022/01/04 07:26:28;;;;;;;;;;;20.90;45.00;;;;;;5087996;28;19958;-46
2022/01/04 07:28:55;;;;;;;;;;;20.90;45.00;;;;;;5107802;28;19934;-48
2022/01/04 07:31:22;;;;;;;;;;;20.90;45.00;;;;;;5111759;27;19928;-42
2022/01/04 07:33:49;;;;;;;;;;;20.90;45.00;;;;;;5109752;28;19943;-44
2022/01/04 07:36:16;;;;;;;;;;;20.80;45.00;;;;;;5087553;28;20351;-46
2022/01/04 07:38:43;;;;;;;;;;;20.90;45.10;;;;;;5089402;28;19995;-48
2022/01/04 07:41:10;;;;;;;;;;;20.80;45.00;;;;;;5107540;28;19990;-44
2022/01/04 07:43:38;;;;;;;;;;;20.80;45.00;;;;;;5090517;28;20007;-42
2022/01/04 07:46:05;;;;;;;;;;;20.90;45.10;;;;;;5109008;28;19927;-46
2022/01/04 07:48:31;;;;;;;;;;;20.80;45.00;;;;;;5090279;28;19986;-45
2022/01/04 07:50:59;;;;;;;;;;;20.80;45.00;;;;;;5091513;28;19934;-42
2022/01/04 07:53:26;;;;;;;;;;;20.80;45.00;;;;;;5093483;28;20395;-47
2022/01/04 07:55:53;;;;;;;;;;;20.90;45.00;;;;;;5095614;28;20236;-42
2022/01/04 07:58:20;;;;;;;;;;;20.80;44.90;;;;;;5095029;28;19928;-43
2022/01/04 08:00:49;;;;;;;;;;;20.80;44.90;;;;;;5090378;28;19930;-42
2022/01/04 08:03:15;;;;;;;;;;;20.90;44.90;;;;;;5079596;28;20440;-41
2022/01/04 08:05:42;;;;;;;;;;;20.80;44.90;;;;;;5085839;28;19928;-49
2022/01/04 08:08:10;;;;;;;;;;;20.90;45.00;;;;;;5093392;28;20420;-46
2022/01/04 08:10:37;;;;;;;;;;;20.90;45.00;;;;;;5088983;28;19927;-48
2022/01/04 08:13:03;;;;;;;;;;;20.90;45.00;;;;;;5088258;28;20297;-43
2022/01/04 08:15:30;;;;;;;;;;;20.80;44.90;;;;;;5090981;28;19928;-43
2022/01/04 08:17:58;;;;;;;;;;;20.90;44.90;;;;;;5111862;28;19999;-43
2022/01/04 08:20:25;;;;;;;;;;;20.80;44.90;;;;;;5107596;27;20003;-44
2022/01/04 08:22:52;;;;;;;;;;;20.90;45.00;;;;;;5097865;28;20011;-46
2022/01/04 08:25:19;;;;;;;;;;;20.80;44.90;;;;;;5087349;28;19950;-42
2022/01/04 08:27:45;;;;;;;;;;;20.90;45.00;;;;;;5091034;28;19940;-44
2022/01/04 08:30:12;;;;;;;;;;;20.90;45.00;;;;;;5088424;28;19997;-44
2022/01/04 08:32:39;;;;;;;;;;;20.80;45.00;;;;;;5093088;28;19924;-43
2022/01/04 08:35:08;;;;;;;;;;;20.90;45.00;;;;;;5087745;28;19967;-41
2022/01/04 08:37:34;;;;;;;;;;;20.90;45.00;;;;;;5086579;28;20400;-47
2022/01/04 08:40:01;;;;;;;;;;;20.90;45.00;;;;;;5093147;28;19977;-44
2022/01/04 08:42:28;;;;;;;;;;;20.90;45.00;;;;;;5085070;28;19995;-42
2022/01/04 08:44:55;;;;;;;;;;;20.90;45.10;;;;;;5094513;28;19931;-42
2022/01/04 08:47:22;;;;;;;;;;;20.90;45.00;;;;;;5094731;28;19932;-44
2022/01/04 08:49:50;;;;;;;;;;;20.90;45.10;;;;;;5103323;28;19924;-44
2022/01/04 08:52:18;;;;;;;;;;;20.90;45.10;;;;;;5111661;28;19928;-42
2022/01/04 08:54:45;;;;;;;;;;;20.90;45.20;;;;;;5112304;28;19928;-46
2022/01/04 08:57:12;;;;;;;;;;;20.90;45.10;;;;;;5088213;28;19977;-46
2022/01/04 08:59:39;;;;;;;;;;;20.90;45.10;;;;;;5090259;28;19967;-47
2022/01/04 09:02:06;;;;;;;;;;;20.90;45.10;;;;;;5092790;28;20023;-47
2022/01/04 09:04:33;;;;;;;;;;;20.90;45.10;;;;;;5092909;28;19927;-47
2022/01/04 09:07:00;;;;;;;;;;;20.90;45.20;;;;;;5102451;28;20030;-47
2022/01/04 09:09:28;;;;;;;;;;;20.90;45.10;;;;;;5088564;28;19931;-47
2022/01/04 09:11:55;;;;;;;;;;;20.90;45.10;;;;;;5091526;28;19936;-48
2022/01/04 09:14:26;;;;;;;;;;;20.90;45.10;;;;;;5104122;28;19928;-45
2022/01/04 09:19:37;;;;;;;;;;;20.90;45.20;;;;;;5102319;28;19962;-46
2022/01/04 09:22:04;;;;;;;;;;;20.90;45.20;;;;;;5090498;28;19931;-43
2022/01/04 09:24:33;;;;;;;;;;;21.00;45.40;;;;;;5085214;28;19930;-44
2022/01/04 09:27:04;;;;;;;;;;;21.00;45.40;;;;;;5087150;28;19932;-42
2022/01/04 09:29:31;;;;;;;;;;;21.00;45.40;;;;;;5080088;28;19923;-43
2022/01/04 09:32:00;;;;;;;;;;;21.00;45.40;;;;;;5094074;28;19974;-43
2022/01/04 09:34:27;;;;;;;;;;;21.00;47.40;;;;;;5088189;28;19946;-45
2022/01/04 09:36:54;;;;;;;;;;;21.00;47.70;;;;;;5111165;28;19924;-42
2022/01/04 09:39:21;;;;;;;;;;;21.00;47.80;;;;;;5082889;28;19955;-46
2022/01/04 09:41:50;;;;;;;;;;;21.10;48.10;;;;;;5089855;28;20383;-46
2022/01/04 09:44:17;;;;;;;;;;;21.10;48.30;;;;;;5087940;28;19962;-42
2022/01/04 09:46:44;;;;;;;;;;;21.10;48.70;;;;;;5109719;28;19927;-44
2022/01/04 09:49:11;;;;;;;;;;;21.20;49.20;;;;;;5109141;28;19936;-43
2022/01/04 09:51:38;;;;;;;;;;;21.20;49.60;;;;;;5103035;28;19946;-48
2022/01/04 09:54:05;;;;;;;;;;;21.00;49.70;;;;;;5087627;28;20385;-47
2022/01/04 09:56:32;;;;;;;;;;;21.00;50.00;;;;;;5111800;28;19923;-44
2022/01/04 09:59:00;;;;;;;;;;;21.10;50.40;;;;;;5111480;28;20279;-43
2022/01/04 10:01:28;;;;;;;;;;;21.10;50.50;;;;;;5088511;28;19938;-46
2022/01/04 10:03:55;;;;;;;;;;;21.10;50.90;;;;;;5086607;28;19930;-43
2022/01/04 10:06:22;;;;;;;;;;;21.00;51.50;;;;;;5116635;28;20060;-49
2022/01/04 10:08:49;;;;;;;;;;;20.90;51.00;;;;;;5098271;28;20030;-48
2022/01/04 10:11:16;;;;;;;;;;;21.10;50.90;;;;;;5111218;28;19924;-43
2022/01/04 10:13:43;;;;;;;;;;;21.00;51.70;;;;;;5095222;28;20035;-47
2022/01/04 10:16:16;;;;;;;;;;;21.00;52.70;;;;;;5116637;28;19935;-46
2022/01/04 10:18:43;;;;;;;;;;;21.10;53.20;;;;;;5092434;28;19924;-51
2022/01/04 10:21:13;;;;;;;;;;;21.10;54.90;;;;;;5099727;28;20029;-44
2022/01/04 10:23:44;;;;;;;;;;;21.00;54.50;;;;;;5092866;28;20330;-45
2022/01/04 10:26:11;;;;;;;;;;;21.00;54.50;;;;;;5105485;28;19924;-47
2022/01/04 10:28:39;;;;;;;;;;;21.10;54.10;;;;;;5089553;28;19987;-47
2022/01/04 10:31:06;;;;;;;;;;;21.20;53.70;;;;;;5107573;28;19932;-42
2022/01/04 10:33:35;;;;;;;;;;;21.00;54.30;;;;;;5106963;28;19978;-43
2022/01/04 10:36:05;;;;;;;;;;;21.00;54.90;;;;;;5093533;28;19924;-45
2022/01/04 10:38:33;;;;;;;;;;;21.00;55.50;;;;;;5091784;28;19928;-46
2022/01/04 10:41:01;;;;;;;;;;;21.10;56.90;;;;;;5094009;28;19959;-42
2022/01/04 10:43:29;;;;;;;;;;;21.00;58.20;;;;;;5089052;28;19935;-44
2022/01/04 10:45:56;;;;;;;;;;;21.00;58.90;;;;;;5095011;28;20012;-44
2022/01/04 10:48:23;;;;;;;;;;;20.90;59.30;;;;;;5088926;28;20469;-45
2022/01/04 10:50:52;;;;;;;;;;;21.10;59.50;;;;;;5114016;28;20008;-43
2022/01/04 10:53:20;;;;;;;;;;;21.10;60.00;;;;;;5089988;28;19963;-46
2022/01/04 10:55:49;;;;;;;;;;;21.00;61.90;;;;;;5090841;28;19947;-47
2022/01/04 10:58:20;;;;;;;;;;;21.20;62.00;;;;;;5106601;28;19981;-47
2022/01/04 11:00:50;;;;;;;;;;;21.00;63.50;;;;;;5085527;28;19924;-46
2022/01/04 11:03:22;;;;;;;;;;;21.10;67.10;;;;;;5089823;28;19989;-45
2022/01/04 11:05:48;;;;;;;;;;;21.10;74.70;;;;;;5086722;28;19999;-48
2022/01/04 11:08:17;;;;;;;;;;;20.90;45.00;;;;;;5105605;28;19924;-44
2022/01/04 11:10:44;;;;;;;;;;;21.00;45.60;;;;;;5109909;28;20384;-45
2022/01/04 11:13:11;;;;;;;;;;;21.00;45.60;;;;;;5082703;28;20576;-49
2022/01/04 11:15:38;;;;;;;;;;;21.00;45.60;;;;;;5092378;28;20600;-46
2022/01/04 11:18:05;;;;;;;;;;;21.00;45.60;;;;;;5104400;28;19930;-49
2022/01/04 11:20:31;;;;;;;;;;;21.00;46.20;;;;;;5110936;27;19930;-49
2022/01/04 11:22:58;;;;;;;;;;;21.00;45.60;;;;;;5089218;28;19970;-47
2022/01/04 11:25:29;;;;;;;;;;;21.00;45.60;;;;;;5107105;28;22553;-46
2022/01/04 11:27:56;;;;;;;;;;;21.00;45.60;;;;;;5090333;28;19935;-45
2022/01/04 11:30:24;;;;;;;;;;;21.00;45.60;;;;;;5091700;28;19924;-43
2022/01/04 11:32:52;;;;;;;;;;;21.00;45.50;;;;;;5087216;28;20027;-43
2022/01/04 11:35:21;;;;;;;;;;;21.00;45.50;;;;;;5100978;28;20081;-50
2022/01/04 11:37:51;;;;;;;;;;;21.10;45.70;;;;;;5104846;28;20026;-47
2022/01/04 11:40:21;;;;;;;;;;;21.10;45.60;;;;;;5090412;28;19956;-48
2022/01/04 11:42:50;;;;;;;;;;;21.00;45.50;;;;;;5092678;28;20008;-43
2022/01/04 11:45:17;;;;;;;;;;;21.00;45.60;;;;;;5085603;28;20064;-43
2022/01/04 11:47:47;;;;;;;;;;;21.00;45.60;;;;;;5088943;28;19927;-47
2022/01/04 11:50:16;;;;;;;;;;;21.10;45.60;;;;;;5105529;28;19924;-47
2022/01/04 11:52:44;;;;;;;;;;;21.10;45.70;;;;;;5088312;28;20304;-45
2022/01/04 11:55:18;;;;;;;;;;;21.10;45.60;;;;;;5103809;28;19928;-45
2022/01/04 11:57:45;;;;;;;;;;;21.10;45.70;;;;;;5089744;28;20035;-44
2022/01/04 12:00:16;;;;;;;;;;;21.10;45.70;;;;;;5090584;28;19928;-43
2022/01/04 12:02:43;;;;;;;;;;;21.10;45.70;;;;;;5083918;28;19932;-44
2022/01/04 12:05:13;;;;;;;;;;;21.10;45.70;;;;;;5106692;28;19927;-46
2022/01/04 12:07:44;;;;;;;;;;;21.10;45.70;;;;;;5109868;28;19924;-45
2022/01/04 12:10:30;;;;;;;;;;;21.10;45.70;;;;;;5092139;28;19955;-47
2022/01/04 12:12:56;;;;;;;;;;;21.10;45.70;;;;;;5090790;28;19991;-49
2022/01/04 12:15:57;;;;;;;;;;;21.10;45.70;;;;;;5087903;28;20427;-47
2022/01/04 12:18:43;;;;;;;;;;;21.10;45.70;;;;;;5097739;28;19970;-43
2022/01/04 12:21:17;;;;;;;;;;;21.10;45.70;;;;;;5108462;28;20316;-47
2022/01/04 12:23:44;;;;;;;;;;;21.10;45.70;;;;;;5089510;28;19949;-48
2022/01/04 12:26:21;;;;;;;;;;;21.10;45.80;;;;;;5089609;28;19936;-48
2022/01/04 12:29:08;;;;;;;;;;;21.10;45.80;;;;;;5090654;28;19930;-50
2022/01/04 12:31:36;;;;;;;;;;;21.10;45.80;;;;;;5104971;28;19974;-50
2022/01/04 12:34:04;;;;;;;;;;;21.10;45.80;;;;;;5080431;28;19930;-48
2022/01/04 12:36:33;;;;;;;;;;;21.10;45.80;;;;;;5091963;28;20043;-48
2022/01/04 12:39:00;;;;;;;;;;;21.10;45.80;;;;;;5089183;28;19936;-46
2022/01/04 12:41:27;;;;;;;;;;;21.10;45.80;;;;;;5092686;28;19935;-48
2022/01/04 12:43:54;;;;;;;;;;;21.10;45.80;;;;;;5085916;28;20235;-43
2022/01/04 12:46:25;;;;;;;;;;;21.10;45.90;;;;;;5093805;28;19924;-45
2022/01/04 12:48:55;;;;;;;;;;;21.10;45.90;;;;;;5092702;28;19923;-47
2022/01/04 12:51:23;;;;;;;;;;;21.10;46.00;;;;;;5089814;28;20005;-46
2022/01/04 12:53:50;;;;;;;;;;;21.10;45.90;;;;;;5080557;28;20391;-46
2022/01/04 12:56:17;;;;;;;;;;;21.10;45.90;;;;;;5101941;28;19931;-44
2022/01/04 12:58:44;;;;;;;;;;;21.10;46.00;;;;;;5072391;28;19928;-48
2022/01/04 13:01:12;;;;;;;;;;;21.10;46.00;;;;;;5106925;28;19927;-45
2022/01/04 13:03:38;;;;;;;;;;;21.10;46.00;;;;;;5095695;28;19953;-48
2022/01/04 13:06:07;;;;;;;;;;;21.10;46.10;;;;;;5102631;28;20043;-44
2022/01/04 13:08:35;;;;;;;;;;;21.10;46.10;;;;;;5105262;28;20220;-42
2022/01/04 13:11:02;;;;;;;;;;;21.10;46.20;;;;;;5086843;28;19930;-46
2022/01/04 13:13:30;;;;;;;;;;;21.10;46.20;;;;;;5081870;28;19938;-45
2022/01/04 13:15:57;;;;;;;;;;;21.10;46.20;;;;;;5086086;28;19928;-45
2022/01/04 13:18:27;;;;;;;;;;;21.10;46.30;;;;;;5093350;28;20285;-46
2022/01/04 13:20:54;;;;;;;;;;;21.10;46.30;;;;;;5086341;28;19946;-50
2022/01/04 13:23:26;;;;;;;;;;;21.10;46.30;;;;;;5084800;28;20023;-45
2022/01/04 13:25:58;;;;;;;;;;;21.10;46.30;;;;;;5087791;28;19927;-48
2022/01/04 13:28:25;;;;;;;;;;;21.10;46.30;;;;;;5089631;28;19932;-47
2022/01/04 13:30:52;;;;;;;;;;;21.10;46.30;;;;;;5110258;28;20380;-44
2022/01/04 13:33:22;;;;;;;;;;;21.10;46.30;;;;;;5089711;28;20006;-46
2022/01/04 13:35:49;;;;;;;;;;;21.10;46.30;;;;;;5107131;28;20480;-43
2022/01/04 13:38:16;;;;;;;;;;;21.10;46.30;;;;;;5092318;28;19924;-42
2022/01/04 13:40:45;;;;;;;;;;;21.10;46.30;;;;;;5091223;28;19928;-45
2022/01/04 13:43:12;;;;;;;;;;;21.10;46.30;;;;;;5093450;28;19928;-46
2022/01/04 13:45:41;;;;;;;;;;;21.10;46.40;;;;;;5092801;28;19938;-48
2022/01/04 13:48:08;;;;;;;;;;;21.10;46.40;;;;;;5086625;28;19924;-42
2022/01/04 13:50:36;;;;;;;;;;;21.10;46.40;;;;;;5086112;28;19931;-48
2022/01/04 13:53:04;;;;;;;;;;;21.10;46.40;;;;;;5099908;28;20280;-44
2022/01/04 13:55:58;;;;;;;;;;;21.10;46.40;;;;;;5080107;28;19928;-43
2022/01/04 13:58:36;;;;;;;;;;;21.10;46.40;;;;;;5056000;28;19924;-47
2022/01/04 14:01:13;;;;;;;;;;;21.10;46.40;;;;;;5086463;28;19963;-45
2022/01/04 14:03:41;;;;;;;;;;;21.10;46.40;;;;;;5089611;28;19976;-44
2022/01/04 14:06:23;;;;;;;;;;;21.10;47.00;;;;;;5084717;28;19928;-47
2022/01/04 14:08:50;;;;;;;;;;;21.10;46.40;;;;;;5108568;28;19928;-43
2022/01/04 14:11:22;;;;;;;;;;;21.10;46.40;;;;;;5091571;28;20014;-43
2022/01/04 14:13:51;;;;;;;;;;;21.10;46.40;;;;;;5090898;28;19928;-47
2022/01/04 14:16:18;;;;;;;;;;;21.10;46.40;;;;;;5090007;28;19924;-41
2022/01/04 14:19:04;;;;;;;;;;;21.10;46.40;;;;;;5103024;28;19924;-46
2022/01/04 14:21:31;;;;;;;;;;;21.10;46.40;;;;;;5103698;28;19934;-48
2022/01/04 14:23:58;;;;;;;;;;;21.10;46.40;;;;;;5092513;28;19928;-46
2022/01/04 14:26:25;;;;;;;;;;;21.10;46.40;;;;;;5109817;28;20285;-50
2022/01/04 14:28:53;;;;;;;;;;;21.10;46.40;;;;;;5085929;28;20032;-45